sensor_id;sensor_type;location;lat;lon;timestamp;pressure;altitude;pressure_sealevel;temperature;humidity
47753;BME280;2038;51.728;6.674;2023-01-28T00:01:13;102195.50;;;4.58;96.12
47753;BME280;2038;51.728;6.674;2023-01-28T00:03:41;102200.59;;;4.51;96.13
47753;BME280;2038;51.728;6.674;2023-01-28T00:06:16;102199.53;;;4.42;96.28
47753;BME280;2038;51.728;6.674;2023-01-28T00:08:44;102197.53;;;4.46;96.61
47753;BME280;2038;51.728;6.674;2023-01-28T00:11:12;102194.69;;;4.43;96.35
47753;BME280;2038;51.728;6.674;2023-01-28T00:13:38;102199.88;;;4.52;96.18
47753;BME280;2038;51.728;6.674;2023-01-28T00:16:07;102197.03;;;4.42;96.07
47753;BME280;2038;51.728;6.674;2023-01-28T00:18:35;102192.72;;;4.41;95.66
47753;BME280;2038;51.728;6.674;2023-01-28T00:21:05;102195.91;;;4.47;95.53
47753;BME280;2038;51.728;6.674;2023-01-28T00:23:35;102193.00;;;4.51;96.03
47753;BME280;2038;51.728;6.674;2023-01-28T00:26:07;102191.97;;;4.42;95.94
47753;BME280;2038;51.728;6.674;2023-01-28T00:28:37;102191.59;;;4.46;96.23
47753;BME280;2038;51.728;6.674;2023-01-28T00:31:20;102185.31;;;4.42;96.45
47753;BME280;2038;51.728;6.674;2023-01-28T00:33:50;102185.44;;;4.51;96.13
47753;BME280;2038;51.728;6.674;2023-01-28T00:36:18;102186.94;;;4.42;95.96
47753;BME280;2038;51.728;6.674;2023-01-28T00:38:49;102185.16;;;4.41;96.40
47753;BME280;2038;51.728;6.674;2023-01-28T00:41:22;102190.34;;;4.49;96.20
47753;BME280;2038;51.728;6.674;2023-01-28T00:43:50;102187.84;;;4.42;96.26
47753;BME280;2038;51.728;6.674;2023-01-28T00:46:18;102189.63;;;4.43;96.56
47753;BME280;2038;51.728;6.674;2023-01-28T00:48:46;102197.00;;;4.49;96.33
47753;BME280;2038;51.728;6.674;2023-01-28T00:51:15;102199.72;;;4.43;96.58
47753;BME280;2038;51.728;6.674;2023-01-28T00:53:42;102201.97;;;4.33;96.51
47753;BME280;2038;51.728;6.674;2023-01-28T00:56:12;102207.94;;;4.27;96.83
47753;BME280;2038;51.728;6.674;2023-01-28T00:58:40;102208.25;;;4.37;96.52
47753;BME280;2038;51.728;6.674;2023-01-28T01:01:23;102208.03;;;4.42;96.61
47753;BME280;2038;51.728;6.674;2023-01-28T01:03:52;102203.06;;;4.28;97.07
47753;BME280;2038;51.728;6.674;2023-01-28T01:06:28;102207.63;;;4.16;97.92
47753;BME280;2038;51.728;6.674;2023-01-28T01:08:56;102197.88;;;4.19;97.54
47753;BME280;2038;51.728;6.674;2023-01-28T01:11:23;102204.72;;;4.13;97.85
47753;BME280;2038;51.728;6.674;2023-01-28T01:13:54;102207.63;;;4.16;98.09
47753;BME280;2038;51.728;6.674;2023-01-28T01:16:24;102203.25;;;4.22;98.10
47753;BME280;2038;51.728;6.674;2023-01-28T01:18:53;102204.69;;;4.28;97.91
47753;BME280;2038;51.728;6.674;2023-01-28T01:21:24;102209.53;;;4.33;97.96
47753;BME280;2038;51.728;6.674;2023-01-28T01:23:52;102210.78;;;4.30;98.31
47753;BME280;2038;51.728;6.674;2023-01-28T01:26:19;102212.41;;;4.36;98.68
47753;BME280;2038;51.728;6.674;2023-01-28T01:28:45;102214.69;;;4.42;98.32
47753;BME280;2038;51.728;6.674;2023-01-28T01:31:14;102215.06;;;4.38;98.79
47753;BME280;2038;51.728;6.674;2023-01-28T01:33:43;102208.25;;;4.37;98.31
47753;BME280;2038;51.728;6.674;2023-01-28T01:36:12;102213.81;;;4.41;98.41
47753;BME280;2038;51.728;6.674;2023-01-28T01:38:40;102211.44;;;4.43;98.08
47753;BME280;2038;51.728;6.674;2023-01-28T01:41:07;102215.97;;;4.38;98.70
47753;BME280;2038;51.728;6.674;2023-01-28T01:43:53;102212.34;;;4.43;98.02
47753;BME280;2038;51.728;6.674;2023-01-28T01:46:33;102211.84;;;4.39;98.16
47753;BME280;2038;51.728;6.674;2023-01-28T01:49:26;102212.06;;;4.33;98.18
47753;BME280;2038;51.728;6.674;2023-01-28T01:52:13;102221.25;;;4.25;97.88
47753;BME280;2038;51.728;6.674;2023-01-28T01:54:46;102229.72;;;4.26;97.20
47753;BME280;2038;51.728;6.674;2023-01-28T01:57:25;102217.88;;;4.25;97.19
47753;BME280;2038;51.728;6.674;2023-01-28T01:59:55;102219.88;;;4.20;96.60
47753;BME280;2038;51.728;6.674;2023-01-28T02:02:35;102219.88;;;4.13;95.93
47753;BME280;2038;51.728;6.674;2023-01-28T02:05:08;102223.84;;;4.11;96.05
47753;BME280;2038;51.728;6.674;2023-01-28T02:07:37;102227.09;;;4.10;95.52
47753;BME280;2038;51.728;6.674;2023-01-28T02:10:05;102231.75;;;4.14;94.91
47753;BME280;2038;51.728;6.674;2023-01-28T02:12:36;102229.84;;;4.05;94.14
47753;BME280;2038;51.728;6.674;2023-01-28T02:15:16;102230.00;;;4.06;94.72
47753;BME280;2038;51.728;6.674;2023-01-28T02:17:46;102234.53;;;3.95;94.43
47753;BME280;2038;51.728;6.674;2023-01-28T02:20:25;102241.00;;;4.00;94.54
47753;BME280;2038;51.728;6.674;2023-01-28T02:26:41;102228.97;;;3.90;93.56
47753;BME280;2038;51.728;6.674;2023-01-28T02:29:55;102234.00;;;3.90;93.89
47753;BME280;2038;51.728;6.674;2023-01-28T02:32:43;102232.94;;;3.88;94.01
47753;BME280;2038;51.728;6.674;2023-01-28T02:35:28;102226.44;;;3.90;94.23
47753;BME280;2038;51.728;6.674;2023-01-28T02:38:11;102226.44;;;3.90;93.92
47753;BME280;2038;51.728;6.674;2023-01-28T02:40:47;102220.50;;;3.97;94.03
47753;BME280;2038;51.728;6.674;2023-01-28T02:43:39;102216.69;;;3.93;93.35
47753;BME280;2038;51.728;6.674;2023-01-28T02:46:18;102215.31;;;3.81;92.63
47753;BME280;2038;51.728;6.674;2023-01-28T02:49:23;102221.97;;;3.81;92.03
47753;BME280;2038;51.728;6.674;2023-01-28T02:55:04;102212.06;;;3.75;90.54
47753;BME280;2038;51.728;6.674;2023-01-28T03:00:54;102202.31;;;3.78;91.20
47753;BME280;2038;51.728;6.674;2023-01-28T03:03:58;102208.44;;;3.87;91.05
47753;BME280;2038;51.728;6.674;2023-01-28T03:06:37;102208.09;;;3.84;91.65
47753;BME280;2038;51.728;6.674;2023-01-28T03:09:10;102210.25;;;3.88;91.75
47753;BME280;2038;51.728;6.674;2023-01-28T03:11:51;102217.28;;;3.84;92.13
47753;BME280;2038;51.728;6.674;2023-01-28T03:14:40;102218.69;;;3.82;92.31
47753;BME280;2038;51.728;6.674;2023-01-28T03:17:27;102217.47;;;3.78;92.89
47753;BME280;2038;51.728;6.674;2023-01-28T03:20:20;102212.78;;;3.81;93.34
47753;BME280;2038;51.728;6.674;2023-01-28T03:23:10;102214.25;;;3.72;93.16
47753;BME280;2038;51.728;6.674;2023-01-28T03:26:01;102210.09;;;3.65;93.46
47753;BME280;2038;51.728;6.674;2023-01-28T03:28:49;102218.94;;;3.62;92.99
47753;BME280;2038;51.728;6.674;2023-01-28T03:31:37;102222.53;;;3.64;93.48
47753;BME280;2038;51.728;6.674;2023-01-28T03:34:23;102221.28;;;3.60;93.29
47753;BME280;2038;51.728;6.674;2023-01-28T03:37:10;102226.31;;;3.67;93.27
47753;BME280;2038;51.728;6.674;2023-01-28T03:39:39;102216.03;;;3.66;93.44
47753;BME280;2038;51.728;6.674;2023-01-28T03:42:11;102225.97;;;3.64;92.85
47753;BME280;2038;51.728;6.674;2023-01-28T03:44:38;102227.38;;;3.69;92.91
47753;BME280;2038;51.728;6.674;2023-01-28T03:47:20;102228.47;;;3.71;92.70
47753;BME280;2038;51.728;6.674;2023-01-28T03:49:50;102226.84;;;3.72;93.24
47753;BME280;2038;51.728;6.674;2023-01-28T03:52:19;102227.22;;;3.68;93.21
47753;BME280;2038;51.728;6.674;2023-01-28T03:54:47;102236.41;;;3.67;93.02
47753;BME280;2038;51.728;6.674;2023-01-28T03:57:16;102234.03;;;3.76;93.39
47753;BME280;2038;51.728;6.674;2023-01-28T03:59:43;102243.41;;;3.70;93.39
47753;BME280;2038;51.728;6.674;2023-01-28T04:02:11;102246.28;;;3.66;93.13
47753;BME280;2038;51.728;6.674;2023-01-28T04:04:41;102243.78;;;3.66;93.20
47753;BME280;2038;51.728;6.674;2023-01-28T04:07:09;102243.25;;;3.68;92.83
47753;BME280;2038;51.728;6.674;2023-01-28T04:09:37;102247.91;;;3.65;92.92
47753;BME280;2038;51.728;6.674;2023-01-28T04:12:03;102249.72;;;3.66;92.98
47753;BME280;2038;51.728;6.674;2023-01-28T04:14:30;102244.69;;;3.66;92.97
47753;BME280;2038;51.728;6.674;2023-01-28T04:16:57;102247.19;;;3.66;92.13
47753;BME280;2038;51.728;6.674;2023-01-28T04:19:25;102246.66;;;3.62;92.36
47753;BME280;2038;51.728;6.674;2023-01-28T04:21:52;102257.50;;;3.61;92.90
47753;BME280;2038;51.728;6.674;2023-01-28T04:24:22;102250.44;;;3.58;92.66
47753;BME280;2038;51.728;6.674;2023-01-28T04:26:49;102252.25;;;3.59;92.41
47753;BME280;2038;51.728;6.674;2023-01-28T04:29:15;102262.00;;;3.56;92.27
47753;BME280;2038;51.728;6.674;2023-01-28T04:31:41;102257.31;;;3.52;92.53
47753;BME280;2038;51.728;6.674;2023-01-28T04:34:07;102255.34;;;3.57;92.92
47753;BME280;2038;51.728;6.674;2023-01-28T04:36:34;102254.94;;;3.54;92.71
47753;BME280;2038;51.728;6.674;2023-01-28T04:39:01;102252.97;;;3.51;92.45
47753;BME280;2038;51.728;6.674;2023-01-28T04:41:27;102252.81;;;3.57;92.18
47753;BME280;2038;51.728;6.674;2023-01-28T04:43:53;102252.28;;;3.52;92.07
47753;BME280;2038;51.728;6.674;2023-01-28T04:46:20;102252.63;;;3.48;92.11
47753;BME280;2038;51.728;6.674;2023-01-28T04:48:47;102245.22;;;3.50;92.46
47753;BME280;2038;51.728;6.674;2023-01-28T04:51:13;102258.03;;;3.51;91.10
47753;BME280;2038;51.728;6.674;2023-01-28T04:53:39;102249.38;;;3.42;90.31
47753;BME280;2038;51.728;6.674;2023-01-28T04:56:05;102245.06;;;3.34;90.23
47753;BME280;2038;51.728;6.674;2023-01-28T04:58:32;102250.44;;;3.37;90.65
47753;BME280;2038;51.728;6.674;2023-01-28T05:00:59;102242.38;;;3.40;90.75
47753;BME280;2038;51.728;6.674;2023-01-28T05:03:25;102242.72;;;3.36;90.45
47753;BME280;2038;51.728;6.674;2023-01-28T05:05:51;102240.75;;;3.40;89.86
47753;BME280;2038;51.728;6.674;2023-01-28T05:08:18;102249.03;;;3.39;89.91
47753;BME280;2038;51.728;6.674;2023-01-28T05:10:44;102244.53;;;3.37;89.96
47753;BME280;2038;51.728;6.674;2023-01-28T05:13:10;102248.28;;;3.33;90.50
47753;BME280;2038;51.728;6.674;2023-01-28T05:15:36;102248.66;;;3.29;91.06
47753;BME280;2038;51.728;6.674;2023-01-28T05:18:03;102250.31;;;3.28;90.66
47753;BME280;2038;51.728;6.674;2023-01-28T05:20:29;102249.91;;;3.25;91.07
47753;BME280;2038;51.728;6.674;2023-01-28T05:22:55;102261.09;;;3.20;91.59
47753;BME280;2038;51.728;6.674;2023-01-28T05:25:22;102266.66;;;3.18;91.33
47753;BME280;2038;51.728;6.674;2023-01-28T05:27:50;102267.56;;;3.11;91.76
47753;BME280;2038;51.728;6.674;2023-01-28T05:30:18;102263.78;;;3.08;91.34
47753;BME280;2038;51.728;6.674;2023-01-28T05:32:45;102269.53;;;3.14;91.21
47753;BME280;2038;51.728;6.674;2023-01-28T05:35:11;102259.66;;;3.08;91.50
47753;BME280;2038;51.728;6.674;2023-01-28T05:37:37;102255.66;;;3.10;91.26
47753;BME280;2038;51.728;6.674;2023-01-28T05:40:04;102256.78;;;3.12;90.99
47753;BME280;2038;51.728;6.674;2023-01-28T05:42:31;102267.91;;;3.07;90.53
47753;BME280;2038;51.728;6.674;2023-01-28T05:44:57;102254.06;;;3.04;90.51
47753;BME280;2038;51.728;6.674;2023-01-28T05:47:23;102254.75;;;3.03;90.26
47753;BME280;2038;51.728;6.674;2023-01-28T05:49:49;102261.97;;;3.00;90.94
47753;BME280;2038;51.728;6.674;2023-01-28T05:52:15;102258.75;;;3.01;91.28
47753;BME280;2038;51.728;6.674;2023-01-28T05:54:42;102263.78;;;3.01;90.61
47753;BME280;2038;51.728;6.674;2023-01-28T05:57:09;102264.84;;;3.03;90.66
47753;BME280;2038;51.728;6.674;2023-01-28T05:59:35;102264.28;;;3.05;90.14
47753;BME280;2038;51.728;6.674;2023-01-28T06:02:01;102265.38;;;3.07;90.47
47753;BME280;2038;51.728;6.674;2023-01-28T06:04:28;102270.78;;;3.03;90.89
47753;BME280;2038;51.728;6.674;2023-01-28T06:06:54;102270.59;;;3.02;90.95
47753;BME280;2038;51.728;6.674;2023-01-28T06:09:20;102263.78;;;3.01;90.46
47753;BME280;2038;51.728;6.674;2023-01-28T06:11:46;102266.97;;;2.86;90.70
47753;BME280;2038;51.728;6.674;2023-01-28T06:14:13;102264.44;;;2.78;90.86
47753;BME280;2038;51.728;6.674;2023-01-28T06:16:39;102269.31;;;2.84;90.35
47753;BME280;2038;51.728;6.674;2023-01-28T06:19:05;102265.88;;;2.83;90.60
47753;BME280;2038;51.728;6.674;2023-01-28T06:21:31;102268.81;;;3.01;90.04
47753;BME280;2038;51.728;6.674;2023-01-28T06:23:58;102267.72;;;2.92;90.10
47753;BME280;2038;51.728;6.674;2023-01-28T06:26:24;102271.47;;;2.95;89.61
47753;BME280;2038;51.728;6.674;2023-01-28T06:28:50;102269.66;;;2.94;89.90
47753;BME280;2038;51.728;6.674;2023-01-28T06:31:16;102274.91;;;2.96;90.52
47753;BME280;2038;51.728;6.674;2023-01-28T06:33:43;102272.94;;;3.00;90.62
47753;BME280;2038;51.728;6.674;2023-01-28T06:36:10;102279.19;;;2.90;90.59
47753;BME280;2038;51.728;6.674;2023-01-28T06:38:36;102279.88;;;2.74;91.65
47753;BME280;2038;51.728;6.674;2023-01-28T06:41:02;102279.88;;;2.67;91.27
47753;BME280;2038;51.728;6.674;2023-01-28T06:43:29;102281.00;;;2.83;90.63
47753;BME280;2038;51.728;6.674;2023-01-28T06:45:56;102279.19;;;2.82;89.93
47753;BME280;2038;51.728;6.674;2023-01-28T06:48:23;102286.59;;;2.88;90.37
47753;BME280;2038;51.728;6.674;2023-01-28T06:50:51;102292.13;;;2.86;90.73
47753;BME280;2038;51.728;6.674;2023-01-28T06:53:18;102293.22;;;2.80;90.42
47753;BME280;2038;51.728;6.674;2023-01-28T06:55:45;102288.34;;;2.82;90.26
47753;BME280;2038;51.728;6.674;2023-01-28T06:58:11;102280.81;;;2.89;90.29
47753;BME280;2038;51.728;6.674;2023-01-28T07:00:37;102283.84;;;2.79;90.38
47753;BME280;2038;51.728;6.674;2023-01-28T07:03:04;102285.28;;;2.77;90.87
47753;BME280;2038;51.728;6.674;2023-01-28T07:05:31;102289.59;;;2.78;90.85
47753;BME280;2038;51.728;6.674;2023-01-28T07:07:57;102287.09;;;2.78;90.47
47753;BME280;2038;51.728;6.674;2023-01-28T07:10:23;102292.69;;;2.83;89.92
47753;BME280;2038;51.728;6.674;2023-01-28T07:12:49;102298.41;;;2.82;90.45
47753;BME280;2038;51.728;6.674;2023-01-28T07:15:16;102292.47;;;2.74;89.90
47753;BME280;2038;51.728;6.674;2023-01-28T07:17:43;102301.28;;;2.78;90.52
47753;BME280;2038;51.728;6.674;2023-01-28T07:20:12;102305.28;;;2.90;90.63
47753;BME280;2038;51.728;6.674;2023-01-28T07:22:41;102300.78;;;2.88;90.96
47753;BME280;2038;51.728;6.674;2023-01-28T07:25:09;102293.25;;;2.95;90.66
47753;BME280;2038;51.728;6.674;2023-01-28T07:27:37;102293.59;;;2.98;90.93
47753;BME280;2038;51.728;6.674;2023-01-28T07:30:04;102288.56;;;2.91;91.17
47753;BME280;2038;51.728;6.674;2023-01-28T07:32:31;102291.81;;;2.97;91.00
47753;BME280;2038;51.728;6.674;2023-01-28T07:34:57;102301.19;;;3.05;91.07
47753;BME280;2038;51.728;6.674;2023-01-28T07:37:23;102312.34;;;3.07;90.44
47753;BME280;2038;51.728;6.674;2023-01-28T07:39:49;102318.44;;;3.02;91.29
47753;BME280;2038;51.728;6.674;2023-01-28T07:42:16;102323.09;;;2.99;91.15
47753;BME280;2038;51.728;6.674;2023-01-28T07:44:43;102331.78;;;3.01;90.60
47753;BME280;2038;51.728;6.674;2023-01-28T07:47:09;102332.28;;;2.98;89.92
47753;BME280;2038;51.728;6.674;2023-01-28T07:49:35;102333.19;;;3.06;89.44
47753;BME280;2038;51.728;6.674;2023-01-28T07:52:04;102338.78;;;3.03;89.09
47753;BME280;2038;51.728;6.674;2023-01-28T07:54:31;102323.31;;;3.07;88.63
47753;BME280;2038;51.728;6.674;2023-01-28T07:56:58;102327.25;;;3.05;89.59
47753;BME280;2038;51.728;6.674;2023-01-28T07:59:24;102334.44;;;3.02;89.69
47753;BME280;2038;51.728;6.674;2023-01-28T08:01:50;102332.28;;;3.05;90.13
47753;BME280;2038;51.728;6.674;2023-01-28T08:04:17;102325.63;;;3.06;90.08
47753;BME280;2038;51.728;6.674;2023-01-28T08:06:44;102330.31;;;3.10;89.79
47753;BME280;2038;51.728;6.674;2023-01-28T08:09:10;102342.97;;;3.17;89.74
47753;BME280;2038;51.728;6.674;2023-01-28T08:11:39;102338.28;;;3.20;89.56
47753;BME280;2038;51.728;6.674;2023-01-28T08:14:06;102340.25;;;3.22;89.17
47753;BME280;2038;51.728;6.674;2023-01-28T08:16:32;102353.75;;;3.23;89.66
47753;BME280;2038;51.728;6.674;2023-01-28T08:18:58;102356.97;;;3.22;89.23
47753;BME280;2038;51.728;6.674;2023-01-28T08:21:24;102365.63;;;3.17;88.68
47753;BME280;2038;51.728;6.674;2023-01-28T08:23:51;102372.84;;;3.21;88.83
47753;BME280;2038;51.728;6.674;2023-01-28T08:26:17;102386.69;;;3.24;89.09
47753;BME280;2038;51.728;6.674;2023-01-28T08:28:43;102389.22;;;3.32;88.93
47753;BME280;2038;51.728;6.674;2023-01-28T08:31:09;102381.66;;;3.32;88.39
47753;BME280;2038;51.728;6.674;2023-01-28T08:33:35;102378.78;;;3.28;88.33
47753;BME280;2038;51.728;6.674;2023-01-28T08:36:03;102377.69;;;3.19;87.55
47753;BME280;2038;51.728;6.674;2023-01-28T08:38:30;102374.47;;;3.20;87.97
47753;BME280;2038;51.728;6.674;2023-01-28T08:40:56;102384.69;;;3.22;88.08
47753;BME280;2038;51.728;6.674;2023-01-28T08:43:24;102396.03;;;3.25;87.77
47753;BME280;2038;51.728;6.674;2023-01-28T08:45:50;102400.38;;;3.26;87.79
47753;BME280;2038;51.728;6.674;2023-01-28T08:48:18;102400.56;;;3.28;87.93
47753;BME280;2038;51.728;6.674;2023-01-28T08:50:44;102405.19;;;3.18;88.03
47753;BME280;2038;51.728;6.674;2023-01-28T08:53:16;102413.16;;;3.21;87.78
47753;BME280;2038;51.728;6.674;2023-01-28T08:55:46;102423.03;;;3.19;88.15
47753;BME280;2038;51.728;6.674;2023-01-28T08:58:14;102421.44;;;3.27;88.42
47753;BME280;2038;51.728;6.674;2023-01-28T09:00:43;102421.44;;;3.27;88.12
47753;BME280;2038;51.728;6.674;2023-01-28T09:03:09;102423.06;;;3.34;87.57
47753;BME280;2038;51.728;6.674;2023-01-28T09:05:36;102418.91;;;3.20;87.72
47753;BME280;2038;51.728;6.674;2023-01-28T09:08:05;102430.78;;;3.21;87.98
47753;BME280;2038;51.728;6.674;2023-01-28T09:10:34;102435.97;;;3.15;87.98
47753;BME280;2038;51.728;6.674;2023-01-28T09:13:11;102439.75;;;3.12;88.29
47753;BME280;2038;51.728;6.674;2023-01-28T09:15:41;102423.72;;;3.18;88.06
47753;BME280;2038;51.728;6.674;2023-01-28T09:18:08;102430.03;;;3.22;88.08
47753;BME280;2038;51.728;6.674;2023-01-28T09:20:34;102429.88;;;3.20;87.25
47753;BME280;2038;51.728;6.674;2023-01-28T09:23:01;102427.72;;;3.30;87.67
47753;BME280;2038;51.728;6.674;2023-01-28T09:25:28;102435.28;;;3.23;86.57
47753;BME280;2038;51.728;6.674;2023-01-28T09:27:55;102438.88;;;3.25;86.44
47753;BME280;2038;51.728;6.674;2023-01-28T09:30:22;102443.06;;;3.32;87.08
47753;BME280;2038;51.728;6.674;2023-01-28T09:32:51;102448.09;;;3.32;86.27
47753;BME280;2038;51.728;6.674;2023-01-28T09:35:19;102442.50;;;3.35;86.37
47753;BME280;2038;51.728;6.674;2023-01-28T09:37:46;102438.56;;;3.37;86.29
47753;BME280;2038;51.728;6.674;2023-01-28T09:40:33;102432.84;;;3.45;86.16
47753;BME280;2038;51.728;6.674;2023-01-28T09:46:07;102443.09;;;3.53;86.03
47753;BME280;2038;51.728;6.674;2023-01-28T09:48:49;102433.19;;;3.55;85.90
47753;BME280;2038;51.728;6.674;2023-01-28T09:51:30;102437.53;;;3.56;85.92
47753;BME280;2038;51.728;6.674;2023-01-28T09:54:41;102430.66;;;3.48;85.47
47753;BME280;2038;51.728;6.674;2023-01-28T09:57:40;102426.34;;;3.47;86.10
47753;BME280;2038;51.728;6.674;2023-01-28T10:00:17;102432.84;;;3.59;86.09
47753;BME280;2038;51.728;6.674;2023-01-28T10:07:03;102434.47;;;3.65;85.44
47753;BME280;2038;51.728;6.674;2023-01-28T10:21:40;102459.91;;;3.88;85.59
47753;BME280;2038;51.728;6.674;2023-01-28T10:27:18;102452.72;;;3.77;84.89
47753;BME280;2038;51.728;6.674;2023-01-28T10:29:48;102451.25;;;3.79;84.83
47753;BME280;2038;51.728;6.674;2023-01-28T10:32:33;102454.47;;;3.71;85.81
47753;BME280;2038;51.728;6.674;2023-01-28T10:35:02;102453.03;;;3.66;86.48
47753;BME280;2038;51.728;6.674;2023-01-28T10:37:33;102446.91;;;3.57;85.96
47753;BME280;2038;51.728;6.674;2023-01-28T10:40:02;102461.47;;;3.59;86.72
47753;BME280;2038;51.728;6.674;2023-01-28T10:42:34;102455.53;;;3.59;86.76
47753;BME280;2038;51.728;6.674;2023-01-28T10:45:13;102459.31;;;3.62;86.07
47753;BME280;2038;51.728;6.674;2023-01-28T10:50:28;102454.63;;;3.51;86.20
47753;BME280;2038;51.728;6.674;2023-01-28T10:53:01;102456.09;;;3.56;86.21
47753;BME280;2038;51.728;6.674;2023-01-28T10:55:37;102448.34;;;3.62;86.50
47753;BME280;2038;51.728;6.674;2023-01-28T10:58:24;102444.72;;;3.53;86.11
47753;BME280;2038;51.728;6.674;2023-01-28T11:01:06;102443.63;;;3.51;86.73
47753;BME280;2038;51.728;6.674;2023-01-28T11:03:32;102443.47;;;3.63;86.60
47753;BME280;2038;51.728;6.674;2023-01-28T11:06:02;102448.53;;;3.77;86.84
47753;BME280;2038;51.728;6.674;2023-01-28T11:08:29;102444.59;;;3.72;86.02
47753;BME280;2038;51.728;6.674;2023-01-28T11:10:56;102446.00;;;3.77;86.49
47753;BME280;2038;51.728;6.674;2023-01-28T11:13:26;102436.28;;;3.73;86.19
47753;BME280;2038;51.728;6.674;2023-01-28T11:16:06;102444.56;;;3.65;85.82
47753;BME280;2038;51.728;6.674;2023-01-28T11:18:54;102440.44;;;3.73;85.90
47753;BME280;2038;51.728;6.674;2023-01-28T11:21:28;102447.09;;;3.72;86.02
47753;BME280;2038;51.728;6.674;2023-01-28T11:24:02;102437.38;;;3.75;86.60
47753;BME280;2038;51.728;6.674;2023-01-28T11:26:43;102440.44;;;3.73;86.66
47753;BME280;2038;51.728;6.674;2023-01-28T11:29:27;102436.28;;;3.73;86.32
47753;BME280;2038;51.728;6.674;2023-01-28T11:31:59;102431.97;;;3.72;86.11
47753;BME280;2038;51.728;6.674;2023-01-28T11:34:28;102420.09;;;3.78;86.14
47753;BME280;2038;51.728;6.674;2023-01-28T11:37:03;102411.81;;;3.87;86.37
47753;BME280;2038;51.728;6.674;2023-01-28T11:39:41;102405.34;;;3.89;85.72
47753;BME280;2038;51.728;6.674;2023-01-28T11:42:21;102402.63;;;3.87;86.37
47753;BME280;2038;51.728;6.674;2023-01-28T11:44:48;102406.41;;;3.91;85.68
47753;BME280;2038;51.728;6.674;2023-01-28T11:50:13;102389.84;;;3.93;85.54
47753;BME280;2038;51.728;6.674;2023-01-28T11:52:51;102407.31;;;3.91;85.82
47753;BME280;2038;51.728;6.674;2023-01-28T11:58:19;102396.50;;;3.92;85.27
47753;BME280;2038;51.728;6.674;2023-01-28T12:01:15;102399.38;;;3.95;84.55
47753;BME280;2038;51.728;6.674;2023-01-28T12:04:09;102390.19;;;4.03;85.11
47753;BME280;2038;51.728;6.674;2023-01-28T12:13:32;102339.03;;;3.97;84.51
47753;BME280;2038;51.728;6.674;2023-01-28T12:16:22;102330.75;;;4.05;84.55
47753;BME280;2038;51.728;6.674;2023-01-28T12:25:13;102302.84;;;3.68;85.56
47753;BME280;2038;51.728;6.674;2023-01-28T12:27:52;102299.06;;;3.57;86.16
47753;BME280;2038;51.728;6.674;2023-01-28T12:34:27;102319.06;;;3.63;85.97
47753;BME280;2038;51.728;6.674;2023-01-28T12:37:42;102334.91;;;3.69;86.13
47753;BME280;2038;51.728;6.674;2023-01-28T12:43:02;102326.78;;;3.78;85.84
47753;BME280;2038;51.728;6.674;2023-01-28T12:45:43;102333.47;;;3.85;85.83
47753;BME280;2038;51.728;6.674;2023-01-28T12:48:13;102330.38;;;3.95;86.16
47753;BME280;2038;51.728;6.674;2023-01-28T12:50:52;102322.25;;;4.04;86.58
47753;BME280;2038;51.728;6.674;2023-01-28T12:53:37;102311.06;;;4.09;85.83
47753;BME280;2038;51.728;6.674;2023-01-28T12:56:18;102318.44;;;4.15;86.55
47753;BME280;2038;51.728;6.674;2023-01-28T13:01:25;102329.97;;;4.20;86.30
47753;BME280;2038;51.728;6.674;2023-01-28T13:07:00;102343.16;;;4.03;85.35
47753;BME280;2038;51.728;6.674;2023-01-28T13:09:34;102335.22;;;3.93;85.98
47753;BME280;2038;51.728;6.674;2023-01-28T13:12:05;102337.06;;;3.73;84.92
47753;BME280;2038;51.728;6.674;2023-01-28T13:14:33;102341.94;;;3.64;85.55
47753;BME280;2038;51.728;6.674;2023-01-28T13:17:29;102334.34;;;3.36;86.47
47753;BME280;2038;51.728;6.674;2023-01-28T13:19:58;102349.81;;;3.32;87.44
47753;BME280;2038;51.728;6.674;2023-01-28T13:25:24;102330.88;;;3.14;86.55
47753;BME280;2038;51.728;6.674;2023-01-28T13:27:59;102332.69;;;3.22;87.06
47753;BME280;2038;51.728;6.674;2023-01-28T13:30:29;102341.34;;;3.39;86.65
47753;BME280;2038;51.728;6.674;2023-01-28T13:33:00;102330.56;;;3.47;86.91
47753;BME280;2038;51.728;6.674;2023-01-28T13:35:38;102335.25;;;3.58;86.59
47753;BME280;2038;51.728;6.674;2023-01-28T13:38:19;102345.00;;;3.69;86.61
47753;BME280;2038;51.728;6.674;2023-01-28T13:40:58;102342.28;;;3.67;86.65
47753;BME280;2038;51.728;6.674;2023-01-28T13:43:37;102341.22;;;3.72;86.76
47753;BME280;2038;51.728;6.674;2023-01-28T13:46:08;102340.31;;;3.72;86.21
47753;BME280;2038;51.728;6.674;2023-01-28T13:48:49;102341.00;;;3.78;86.41
47753;BME280;2038;51.728;6.674;2023-01-28T13:54:00;102306.81;;;3.80;85.78
47753;BME280;2038;51.728;6.674;2023-01-28T14:08:42;102263.75;;;3.93;87.21
47753;BME280;2038;51.728;6.674;2023-01-28T14:17:50;102280.31;;;3.91;88.26
47753;BME280;2038;51.728;6.674;2023-01-28T14:20:27;102285.69;;;4.01;88.01
47753;BME280;2038;51.728;6.674;2023-01-28T14:23:04;102280.81;;;4.02;87.40
47753;BME280;2038;51.728;6.674;2023-01-28T14:28:40;102271.78;;;4.11;86.21
47753;BME280;2038;51.728;6.674;2023-01-28T14:31:26;102268.16;;;4.23;86.17
47753;BME280;2038;51.728;6.674;2023-01-28T14:34:04;102283.84;;;4.14;85.94
47753;BME280;2038;51.728;6.674;2023-01-28T14:36:45;102285.84;;;4.09;86.55
47753;BME280;2038;51.728;6.674;2023-01-28T14:39:18;102282.97;;;4.06;86.78
47753;BME280;2038;51.728;6.674;2023-01-28T14:41:50;102285.84;;;4.09;87.21
47753;BME280;2038;51.728;6.674;2023-01-28T14:44:37;102292.16;;;4.06;86.76
47753;BME280;2038;51.728;6.674;2023-01-28T14:47:33;102289.66;;;3.99;87.28
47753;BME280;2038;51.728;6.674;2023-01-28T14:53:49;102304.25;;;4.08;86.50
47753;BME280;2038;51.728;6.674;2023-01-28T14:59:41;102321.72;;;4.00;87.70
47753;BME280;2038;51.728;6.674;2023-01-28T15:02:21;102334.34;;;3.93;86.92
47753;BME280;2038;51.728;6.674;2023-01-28T15:04:50;102327.31;;;3.90;86.20
47753;BME280;2038;51.728;6.674;2023-01-28T15:07:25;102335.09;;;3.85;86.20
47753;BME280;2038;51.728;6.674;2023-01-28T15:10:06;102341.91;;;3.78;86.37
47753;BME280;2038;51.728;6.674;2023-01-28T15:15:33;102335.28;;;3.72;86.50
47753;BME280;2038;51.728;6.674;2023-01-28T15:18:14;102335.78;;;3.69;87.22
47753;BME280;2038;51.728;6.674;2023-01-28T15:20:50;102344.63;;;3.73;87.18